»·PEaware :: N48JF 1l1-2O7

N48JF :: 1l1-2O7

FLIGHT INFORMATION

Flight Status: Arrived
Operator: Privately registered:
United States
More flights under this callsign
Pilot: Mark P. (13279)
Aircraft: Unknown
(EA55)
More flights by this aircraft type
Origin: 1l1 Lincoln Co
United States
Destination: 2O7 Independence
United States
More flights between these airports :: More routes between these airports
Route: TPH BIH
File this flight plan on PilotEdge
Remarks:
Altitude:
(Current/Filed)
12,500ft
Speed:
(Current/Filed)
350kts
Departed: 15-Dec-16 11:55 AM
Arrived: 15-Dec-16 12:39 PM
Distance/Time
Traveled:
190nm/0:44
Distance/Time
To Go:
Arrived

Flight Plot

Page will automatically refresh every two minutes.

Flight plan parsing failed; only flown route is shown


Map Options




Map Legend


Flown Route
Filed Route
Departure Airport
Arrival Airport
Navaid (VOR, NDB)
Fix

Horizontal Profiles

Position Reports

Time Latitude Longitude Heading Altitude Ground
Speed
15-Dec-16 11:44 37.781221 -114.421508 91 4833ft 0kts
15-Dec-16 11:45 37.781221 -114.421508 91 4833ft 0kts
15-Dec-16 11:46 37.781440 -114.421085 358 4832ft 10kts
15-Dec-16 11:47 37.808050 -114.433447 256 7045ft 173kts
15-Dec-16 11:48 37.800080 -114.511474 264 9399ft 270kts
15-Dec-16 11:49 37.803905 -114.607440 277 12393ft 292kts
15-Dec-16 11:50 37.817115 -114.712648 275 14352ft 304kts
15-Dec-16 11:51 37.829293 -114.826231 274 14503ft 342kts
15-Dec-16 11:52 37.841630 -114.947261 274 14501ft 350kts
15-Dec-16 11:53 37.853861 -115.069951 274 14501ft 351kts
15-Dec-16 11:54 37.865943 -115.192803 274 14500ft 351kts
15-Dec-16 11:55 37.877600 -115.312702 274 14500ft 351kts
15-Dec-16 11:56 37.889664 -115.438211 274 14499ft 351kts
15-Dec-16 11:57 37.901377 -115.561459 274 14499ft 351kts
15-Dec-16 11:58 37.912893 -115.682426 274 14502ft 351kts
15-Dec-16 11:59 37.924565 -115.803401 274 14502ft 351kts
15-Dec-16 12:00 37.935872 -115.925391 274 14502ft 351kts
15-Dec-16 12:01 37.947028 -116.048029 274 14501ft 351kts
15-Dec-16 12:02 37.958132 -116.171727 274 14501ft 351kts
15-Dec-16 12:03 37.969046 -116.294812 274 14500ft 351kts
15-Dec-16 12:04 37.979613 -116.415434 274 14499ft 351kts
15-Dec-16 12:05 37.990357 -116.539586 274 14499ft 351kts
15-Dec-16 12:06 38.000640 -116.659745 273 14501ft 351kts
15-Dec-16 12:07 38.011818 -116.785818 273 14502ft 351kts
15-Dec-16 12:08 38.022137 -116.908128 273 14502ft 351kts
15-Dec-16 12:09 38.028844 -117.030965 253 14490ft 347kts
15-Dec-16 12:10 37.980671 -117.137089 238 14501ft 345kts
15-Dec-16 12:11 37.930484 -117.241231 238 14500ft 345kts
15-Dec-16 12:12 37.880444 -117.344598 238 14499ft 345kts
15-Dec-16 12:13 37.830110 -117.448211 238 14499ft 345kts
15-Dec-16 12:14 37.779681 -117.551685 238 14498ft 345kts
15-Dec-16 12:15 37.729134 -117.655075 238 14499ft 345kts
15-Dec-16 12:16 37.679378 -117.757779 238 14501ft 345kts
15-Dec-16 12:17 37.642944 -117.832143 238 14501ft 345kts
15-Dec-16 12:18 37.579033 -117.961824 237 14500ft 345kts
15-Dec-16 12:19 37.528885 -118.063143 237 14499ft 345kts
15-Dec-16 12:20 37.478537 -118.164541 237 14499ft 345kts
15-Dec-16 12:21 37.428445 -118.265110 237 14498ft 345kts
15-Dec-16 12:22 37.365408 -118.349995 192 14485ft 353kts
15-Dec-16 12:23 37.269981 -118.333189 172 13241ft 350kts
15-Dec-16 12:24 37.177742 -118.308364 170 11516ft 347kts
15-Dec-16 12:25 37.087182 -118.282709 170 9800ft 295kts
15-Dec-16 12:26 37.008880 -118.260441 169 8309ft 287kts
15-Dec-16 12:27 36.931606 -118.238419 168 6910ft 282kts
15-Dec-16 12:28 36.872600 -118.221531 168 5847ft 134kts
15-Dec-16 12:29 36.843179 -118.213191 167 4356ft 98kts
15-Dec-16 12:30 36.816134 -118.206478 154 3905ft 88kts
15-Dec-16 12:31 36.809389 -118.202489 334 3904ft 3kts
15-Dec-16 12:32 36.809412 -118.202503 335 3904ft 0kts
15-Dec-16 12:33 36.809412 -118.202503 335 3904ft 0kts
15-Dec-16 12:34 36.809412 -118.202503 335 3904ft 0kts
15-Dec-16 12:35 36.809412 -118.202503 335 3904ft 0kts

Navigation Log

Ident Type
Flight plan parsing failed, navigation log unavailable